Torrington, WY

12:48 AM MDT on October 22, 2014 (GMT -0600)
Torrington Municipal | Change Station
CLOSE
Current Station
Airport
Location: Torrington,
Elevation: 4206 ft
Nearby Weather Stations

Elev 4206 ft 42.06 °N, 104.15 °W | Updated 55 minutes ago

Light Rain
Light Rain
55 °F
Feels Like 55 °F
N
10
Wind Variable Wind from WNW

Today
High -- | Low -- °F
--% Chance of Precip.
Yesterday
High -- | Low -- °F
Precip. -- in
7:17 AM 6:04 PM
Waning Crescent, 3% visible
Pressure 29.81 in
Visibility 10.0 miles
Clouds Overcast 10000 ft
Dew Point 44 °F
Humidity 67%
Rainfall 0.00 in
Snow Depth Not available.
UV 0 out of 12
Pollen 2.70 out of 12
Air Quality Not available.
Flu Activity Not available.
METAR KTOR 220553Z AUTO 29009KT 10SM -RA OVC100 13/07 A2991 RMK AO2 RAB49 SLP095 P0000 60000 T01280067 10194 20128 53008

More Conditions Fewer Conditions

Pressure 29.81 in
Visibility 10.0 miles
Clouds Overcast 10000 ft
Dew Point 44 °F
Humidity 67%
Rainfall 0.00 in
Snow Depth Not available.
UV 0 out of 12
Pollen 2.70 out of 12
Air Quality Not available.
Flu Activity Not available.
METAR KTOR 220553Z AUTO 29009KT 10SM -RA OVC100 13/07 A2991 RMK AO2 RAB49 SLP095 P0000 60000 T01280067 10194 20128 53008

More Conditions Fewer Conditions

10-Day Weather Forecast

Almanac

Astronomy

Oct. 22, 2014 Rise Set
Actual Time 7:17 AM MDT 6:04 PM MDT
Civil Twilight 6:48 AM MDT 6:32 PM MDT
Nautical Twilight 6:16 AM MDT 7:05 PM MDT
Astronomical Twilight 5:43 AM MDT 7:37 PM MDT
Moon 5:59 AM MDT 5:32 PM MDT
Length of Visible Light 11h 43m
Length of Day
10h 46m
Tomorrow will be 2m 39s shorter.
Waning Crescent, 3% of the Moon is Illuminated
Today
Waning Crescent
Oct 23
New
Oct 30
First Quarter
Nov 6
Full
Nov 14
Last Quarter

Today's Extremes

State Highs State Lows

Community

WunderPhotos

Upload Photos

1,763,884 photos uploaded!

Nearby

Snow Depth

Station Depth Elevation
Windy Peak 0 in 7900 ft
Crow Creek 0 in 8330 ft
Laprele Creek 0 in 8375 ft
Reno Hill 0 in 8500 ft
Sand Lake 4 in 10050 ft

Earthquake Activity

City Distance Mag. Time & Date
No recent earthquake activity has been reported nearby.
Minimum magnitude displayed is 2.5.

Coastal Water Temperatures

Place Temperature
No Stations Reporting

Nearby Weather Stations